BVX106 EGJJ-EGCC
Flight info
| Callsign | BVX106 |
|---|---|
| Flight time | 0h 46m |
| Altitude | 36000 |
| Route | BENIX G27 AKIKI UN867 AVANT UM184 HEMEL T420 ELVOS |
| Aircraft | A319/M-SDE3FGHIRWY/LB1 |
Departure
| Time | 2026-05-04 11:22 |
|---|---|
| Airport | Jersey Airport (EGJJ) |
Arrival
| Time | 2026-05-04 12:09 |
|---|---|
| Airport | Manchester Airport (EGCC) |
| Time | Latitude | Longitude | Altitude | Speed | Heading |
|---|---|---|---|---|---|
| 2026-05-04 10:49 | 49.20559 | -2.19702 | 281 ft | 0 kts | 177° |
| 2026-05-04 11:13 | 49.20578 | -2.19704 | 282 ft | 4 kts | 178° |
| 2026-05-04 11:13 | 49.20605 | -2.19704 | 286 ft | 4 kts | 181° |
| 2026-05-04 11:13 | 49.20628 | -2.19702 | 283 ft | 1 kts | 187° |
| 2026-05-04 11:14 | 49.20633 | -2.19701 | 283 ft | 0 kts | 187° |
| 2026-05-04 11:16 | 49.20632 | -2.19701 | 283 ft | 0 kts | 187° |
| 2026-05-04 11:16 | 49.20619 | -2.19717 | 284 ft | 4 kts | 231° |
| 2026-05-04 11:16 | 49.20612 | -2.19779 | 280 ft | 8 kts | 268° |
| 2026-05-04 11:17 | 49.20605 | -2.19888 | 280 ft | 12 kts | 253° |
| 2026-05-04 11:17 | 49.20537 | -2.19941 | 280 ft | 10 kts | 200° |
| 2026-05-04 11:19 | 49.20616 | -2.20484 | 280 ft | 0 kts | 285° |
| 2026-05-04 11:19 | 49.20617 | -2.20490 | 280 ft | 2 kts | 285° |
| 2026-05-04 11:19 | 49.20624 | -2.20533 | 280 ft | 6 kts | 283° |
| 2026-05-04 11:19 | 49.20629 | -2.20621 | 280 ft | 10 kts | 273° |
| 2026-05-04 11:20 | 49.20678 | -2.20700 | 280 ft | 13 kts | 3° |
| 2026-05-04 11:20 | 49.20709 | -2.20628 | 281 ft | 3 kts | 86° |
| 2026-05-04 11:20 | 49.20711 | -2.20590 | 279 ft | 1 kts | 85° |
| 2026-05-04 11:20 | 49.20711 | -2.20587 | 279 ft | 0 kts | 84° |
| 2026-05-04 11:22 | 49.21247 | -2.14525 | 1952 ft | 185 kts | 82° |
| 2026-05-04 11:22 | 49.21461 | -2.12489 | 2351 ft | 203 kts | 82° |
| 2026-05-04 11:23 | 49.21697 | -2.10220 | 2678 ft | 231 kts | 83° |
| 2026-05-04 11:23 | 49.21953 | -2.07651 | 3182 ft | 255 kts | 83° |
| 2026-05-04 11:24 | 49.28622 | -1.93949 | 5119 ft | 276 kts | 47° |
| 2026-05-04 11:25 | 49.29927 | -1.91779 | 5298 ft | 280 kts | 50° |
| 2026-05-04 11:25 | 49.31163 | -1.89535 | 6362 ft | 276 kts | 51° |
| 2026-05-04 11:25 | 49.32402 | -1.87252 | 7226 ft | 281 kts | 51° |
| 2026-05-04 11:26 | 49.34996 | -1.82641 | 9015 ft | 290 kts | 49° |
| 2026-05-04 11:27 | 49.45560 | -1.64919 | 12533 ft | 381 kts | 47° |
| 2026-05-04 11:28 | 49.47375 | -1.61936 | 13291 ft | 383 kts | 48° |
| 2026-05-04 11:28 | 49.49176 | -1.58870 | 13908 ft | 389 kts | 50° |
| 2026-05-04 11:28 | 49.50954 | -1.55673 | 14419 ft | 396 kts | 51° |
| 2026-05-04 11:28 | 49.52714 | -1.52418 | 15165 ft | 397 kts | 51° |
| 2026-05-04 11:29 | 49.54538 | -1.49194 | 15833 ft | 402 kts | 49° |
| 2026-05-04 11:29 | 49.56444 | -1.46010 | 16526 ft | 406 kts | 47° |
| 2026-05-04 11:29 | 49.58616 | -1.43228 | 17176 ft | 412 kts | 30° |
| 2026-05-04 11:29 | 49.61329 | -1.41799 | 17781 ft | 416 kts | 10° |
| 2026-05-04 11:31 | 49.82222 | -1.39602 | 21351 ft | 444 kts | 3° |
| 2026-05-04 11:33 | 50.04322 | -1.36987 | 24257 ft | 467 kts | 8° |
| 2026-05-04 11:33 | 50.07532 | -1.36181 | 24625 ft | 469 kts | 8° |
| 2026-05-04 11:33 | 50.10766 | -1.35369 | 24993 ft | 472 kts | 8° |
| 2026-05-04 11:34 | 50.14019 | -1.34553 | 25346 ft | 474 kts | 8° |
| 2026-05-04 11:34 | 50.17286 | -1.33735 | 25699 ft | 477 kts | 8° |
| 2026-05-04 11:34 | 50.20574 | -1.32916 | 26042 ft | 479 kts | 8° |
| 2026-05-04 11:34 | 50.23868 | -1.32100 | 26372 ft | 482 kts | 8° |
| 2026-05-04 11:35 | 50.27188 | -1.31276 | 26705 ft | 484 kts | 8° |
| 2026-05-04 11:35 | 50.30524 | -1.30446 | 27027 ft | 487 kts | 8° |
| 2026-05-04 11:35 | 50.33879 | -1.29609 | 27340 ft | 489 kts | 8° |
| 2026-05-04 11:35 | 50.37238 | -1.28767 | 27650 ft | 491 kts | 8° |
| 2026-05-04 11:36 | 50.40633 | -1.27911 | 27954 ft | 494 kts | 8° |
| 2026-05-04 11:36 | 50.44023 | -1.27054 | 28251 ft | 496 kts | 8° |
| 2026-05-04 11:36 | 50.47425 | -1.26052 | 28563 ft | 498 kts | 14° |
| 2026-05-04 11:36 | 50.50720 | -1.24347 | 28986 ft | 497 kts | 23° |
| 2026-05-04 11:37 | 50.53808 | -1.21940 | 29419 ft | 496 kts | 32° |
| 2026-05-04 11:37 | 50.56735 | -1.19060 | 29838 ft | 495 kts | 33° |
| 2026-05-04 11:37 | 50.59646 | -1.16170 | 30237 ft | 495 kts | 33° |
| 2026-05-04 11:37 | 50.62558 | -1.13279 | 30622 ft | 494 kts | 33° |
| 2026-05-04 11:38 | 50.65463 | -1.10396 | 31012 ft | 493 kts | 33° |
| 2026-05-04 11:38 | 50.68389 | -1.07483 | 31422 ft | 492 kts | 33° |
| 2026-05-04 11:38 | 50.71241 | -1.04629 | 31829 ft | 490 kts | 33° |
| 2026-05-04 11:38 | 50.74116 | -1.01746 | 32236 ft | 489 kts | 33° |
| 2026-05-04 11:39 | 50.76981 | -0.98872 | 32664 ft | 488 kts | 33° |
| 2026-05-04 11:39 | 50.79848 | -0.96005 | 32971 ft | 487 kts | 32° |
| 2026-05-04 11:40 | 50.98857 | -0.85137 | 33019 ft | 484 kts | 18° |
| 2026-05-04 11:41 | 51.02057 | -0.83472 | 33018 ft | 484 kts | 18° |
| 2026-05-04 11:41 | 51.08458 | -0.80131 | 33021 ft | 484 kts | 18° |
| 2026-05-04 11:42 | 51.14854 | -0.76789 | 33025 ft | 483 kts | 18° |
| 2026-05-04 11:42 | 51.21245 | -0.73454 | 33025 ft | 483 kts | 18° |
| 2026-05-04 11:43 | 51.27620 | -0.70112 | 33031 ft | 482 kts | 18° |
| 2026-05-04 11:43 | 51.34021 | -0.66743 | 33008 ft | 481 kts | 18° |
| 2026-05-04 11:44 | 51.40344 | -0.63415 | 33068 ft | 479 kts | 18° |
| 2026-05-04 11:44 | 51.46636 | -0.60083 | 33076 ft | 477 kts | 18° |
| 2026-05-04 11:45 | 51.52921 | -0.56741 | 33075 ft | 475 kts | 18° |
| 2026-05-04 11:45 | 51.59220 | -0.53374 | 33045 ft | 473 kts | 18° |
| 2026-05-04 11:46 | 51.65419 | -0.50070 | 33044 ft | 472 kts | 18° |
| 2026-05-04 11:46 | 51.71661 | -0.46727 | 33067 ft | 471 kts | 18° |
| 2026-05-04 11:47 | 51.78066 | -0.44879 | 33067 ft | 469 kts | 359° |
| 2026-05-04 11:47 | 51.84448 | -0.46537 | 33070 ft | 464 kts | 339° |
| 2026-05-04 11:48 | 51.90156 | -0.51268 | 33066 ft | 461 kts | 327° |
| 2026-05-04 11:48 | 51.95639 | -0.56621 | 33058 ft | 461 kts | 327° |
| 2026-05-04 11:49 | 52.01150 | -0.61982 | 33055 ft | 461 kts | 328° |
| 2026-05-04 11:49 | 52.06630 | -0.67342 | 33054 ft | 460 kts | 328° |
| 2026-05-04 11:50 | 52.12150 | -0.72788 | 33038 ft | 460 kts | 327° |
| 2026-05-04 11:50 | 52.17586 | -0.78166 | 33039 ft | 460 kts | 328° |
| 2026-05-04 11:51 | 52.23057 | -0.83575 | 33036 ft | 460 kts | 328° |
| 2026-05-04 11:51 | 52.28555 | -0.89026 | 33038 ft | 460 kts | 328° |
| 2026-05-04 11:52 | 52.33989 | -0.94438 | 33043 ft | 460 kts | 328° |
| 2026-05-04 11:52 | 52.39477 | -0.99902 | 33034 ft | 460 kts | 329° |
| 2026-05-04 11:53 | 52.44940 | -1.05365 | 32971 ft | 459 kts | 329° |
| 2026-05-04 11:53 | 52.47632 | -1.08068 | 32299 ft | 458 kts | 329° |
| 2026-05-04 11:53 | 52.50405 | -1.10857 | 31293 ft | 464 kts | 328° |
| 2026-05-04 11:53 | 52.53156 | -1.13630 | 30561 ft | 463 kts | 328° |
| 2026-05-04 11:55 | 52.72493 | -1.33196 | 23181 ft | 471 kts | 327° |
| 2026-05-04 11:55 | 52.75259 | -1.36016 | 22310 ft | 463 kts | 327° |
| 2026-05-04 11:56 | 52.77983 | -1.38800 | 21380 ft | 457 kts | 327° |
| 2026-05-04 11:56 | 52.80671 | -1.41549 | 20479 ft | 451 kts | 327° |
| 2026-05-04 11:56 | 52.83319 | -1.44258 | 19643 ft | 445 kts | 327° |
| 2026-05-04 11:56 | 52.85934 | -1.46934 | 18805 ft | 440 kts | 327° |
| 2026-05-04 11:57 | 52.88525 | -1.49585 | 17914 ft | 434 kts | 327° |
| 2026-05-04 11:57 | 52.91072 | -1.52196 | 16995 ft | 429 kts | 327° |
| 2026-05-04 11:57 | 52.93580 | -1.54773 | 16501 ft | 415 kts | 327° |
| 2026-05-04 11:57 | 52.95977 | -1.57240 | 16367 ft | 395 kts | 327° |
| 2026-05-04 11:58 | 52.98247 | -1.59577 | 16158 ft | 372 kts | 327° |
| 2026-05-04 11:58 | 53.00394 | -1.61794 | 15734 ft | 356 kts | 327° |
| 2026-05-04 11:58 | 53.02480 | -1.63957 | 15343 ft | 342 kts | 327° |
| 2026-05-04 11:58 | 53.04445 | -1.66021 | 14973 ft | 326 kts | 324° |
| 2026-05-04 11:59 | 53.06128 | -1.68420 | 14605 ft | 313 kts | 311° |
| 2026-05-04 11:59 | 53.07535 | -1.71126 | 14242 ft | 308 kts | 309° |
| 2026-05-04 11:59 | 53.08920 | -1.73825 | 13892 ft | 307 kts | 309° |
| 2026-05-04 11:59 | 53.10308 | -1.76518 | 13492 ft | 305 kts | 309° |
| 2026-05-04 12:00 | 53.11688 | -1.79188 | 13094 ft | 304 kts | 310° |
| 2026-05-04 12:00 | 53.13046 | -1.81818 | 12706 ft | 302 kts | 309° |
| 2026-05-04 12:00 | 53.14428 | -1.84498 | 12306 ft | 301 kts | 309° |
| 2026-05-04 12:00 | 53.15773 | -1.87109 | 11927 ft | 300 kts | 309° |
| 2026-05-04 12:01 | 53.17126 | -1.89742 | 11549 ft | 298 kts | 309° |
| 2026-05-04 12:01 | 53.18487 | -1.92400 | 11160 ft | 296 kts | 309° |
| 2026-05-04 12:02 | 53.23663 | -2.08609 | 8874 ft | 258 kts | 266° |
| 2026-05-04 12:03 | 53.23547 | -2.11632 | 8458 ft | 259 kts | 266° |
| 2026-05-04 12:03 | 53.23436 | -2.14643 | 8040 ft | 260 kts | 266° |
| 2026-05-04 12:03 | 53.23328 | -2.17620 | 7643 ft | 261 kts | 266° |
| 2026-05-04 12:03 | 53.23217 | -2.20679 | 7236 ft | 261 kts | 266° |
| 2026-05-04 12:04 | 53.23107 | -2.23682 | 6835 ft | 258 kts | 266° |
| 2026-05-04 12:04 | 53.22998 | -2.26653 | 6432 ft | 254 kts | 266° |
| 2026-05-04 12:04 | 53.22891 | -2.29559 | 6017 ft | 249 kts | 266° |
| 2026-05-04 12:04 | 53.22782 | -2.32418 | 5592 ft | 244 kts | 266° |
| 2026-05-04 12:05 | 53.22674 | -2.35218 | 5201 ft | 239 kts | 267° |
| 2026-05-04 12:05 | 53.22606 | -2.37031 | 4928 ft | 234 kts | 267° |
| 2026-05-04 12:05 | 53.22505 | -2.39710 | 4513 ft | 228 kts | 267° |
| 2026-05-04 12:05 | 53.22430 | -2.42315 | 4092 ft | 222 kts | 272° |
| 2026-05-04 12:06 | 53.22964 | -2.44637 | 3671 ft | 214 kts | 313° |
| 2026-05-04 12:06 | 53.24205 | -2.45858 | 3267 ft | 208 kts | 349° |
| 2026-05-04 12:06 | 53.25996 | -2.45382 | 3009 ft | 194 kts | 31° |
| 2026-05-04 12:06 | 53.26718 | -2.44448 | 2818 ft | 197 kts | 47° |
| 2026-05-04 12:07 | 53.27528 | -2.42579 | 2334 ft | 198 kts | 51° |
| 2026-05-04 12:07 | 53.28418 | -2.40908 | 2211 ft | 189 kts | 50° |
| 2026-05-04 12:07 | 53.29248 | -2.39215 | 2208 ft | 189 kts | 51° |
| 2026-05-04 12:07 | 53.30066 | -2.37524 | 1803 ft | 184 kts | 51° |
| 2026-05-04 12:08 | 53.30866 | -2.35867 | 1244 ft | 184 kts | 51° |
| 2026-05-04 12:08 | 53.31670 | -2.34200 | 680 ft | 183 kts | 51° |
| 2026-05-04 12:08 | 53.32441 | -2.32616 | 451 ft | 167 kts | 50° |
| 2026-05-04 12:08 | 53.33145 | -2.31173 | 244 ft | 153 kts | 50° |
| 2026-05-04 12:09 | 53.33749 | -2.29918 | 214 ft | 92 kts | 51° |
| 2026-05-04 12:09 | 53.33968 | -2.29466 | 210 ft | 39 kts | 50° |
| 2026-05-04 12:09 | 53.34144 | -2.29113 | 221 ft | 40 kts | 50° |
| 2026-05-04 12:09 | 53.34317 | -2.28762 | 225 ft | 36 kts | 50° |
| 2026-05-04 12:10 | 53.34504 | -2.28533 | 227 ft | 29 kts | 22° |
| 2026-05-04 12:10 | 53.34621 | -2.28461 | 226 ft | 0 kts | 20° |
| 2026-05-04 12:11 | 53.34622 | -2.28460 | 226 ft | 1 kts | 20° |
| 2026-05-04 12:11 | 53.34631 | -2.28454 | 227 ft | 2 kts | 20° |
| 2026-05-04 12:11 | 53.34653 | -2.28441 | 227 ft | 5 kts | 20° |
| 2026-05-04 12:11 | 53.34686 | -2.28417 | 229 ft | 6 kts | 27° |
| 2026-05-04 12:12 | 53.34727 | -2.28362 | 229 ft | 9 kts | 46° |
| 2026-05-04 12:12 | 53.34772 | -2.28274 | 230 ft | 11 kts | 52° |
| 2026-05-04 12:12 | 53.34824 | -2.28164 | 232 ft | 13 kts | 51° |
| 2026-05-04 12:12 | 53.34883 | -2.28039 | 234 ft | 15 kts | 50° |
| 2026-05-04 12:13 | 53.34953 | -2.27898 | 237 ft | 17 kts | 50° |
| 2026-05-04 12:14 | 53.35327 | -2.27194 | 248 ft | 0 kts | 12° |
| 2026-05-04 12:16 | 53.35332 | -2.27192 | 248 ft | 4 kts | 12° |
| 2026-05-04 12:16 | 53.35371 | -2.27197 | 250 ft | 6 kts | 342° |
| 2026-05-04 12:16 | 53.35408 | -2.27234 | 253 ft | 9 kts | 323° |
| 2026-05-04 12:17 | 53.35480 | -2.27333 | 256 ft | 15 kts | 320° |
| 2026-05-04 12:17 | 53.35559 | -2.27441 | 256 ft | 12 kts | 321° |
| 2026-05-04 12:17 | 53.35570 | -2.27456 | 256 ft | 0 kts | 321° |
| 2026-05-04 12:18 | 53.35573 | -2.27459 | 256 ft | 2 kts | 322° |
| 2026-05-04 12:19 | 53.35597 | -2.27470 | 256 ft | 5 kts | 0° |
| 2026-05-04 12:19 | 53.35644 | -2.27409 | 254 ft | 12 kts | 54° |
| 2026-05-04 12:19 | 53.35695 | -2.27295 | 255 ft | 15 kts | 52° |
| 2026-05-04 12:19 | 53.35757 | -2.27165 | 255 ft | 16 kts | 51° |
| 2026-05-04 12:20 | 53.35811 | -2.27037 | 255 ft | 11 kts | 62° |
| 2026-05-04 12:20 | 53.35831 | -2.26976 | 255 ft | 1 kts | 60° |
| 2026-05-04 12:20 | 53.35840 | -2.26965 | 255 ft | 1 kts | 29° |
| 2026-05-04 12:20 | 53.35845 | -2.26964 | 255 ft | 0 kts | 10° |
| 2026-05-04 12:21 | 53.35848 | -2.26965 | 255 ft | 2 kts | 358° |
| 2026-05-04 12:21 | 53.35862 | -2.26976 | 255 ft | 2 kts | 326° |
| 2026-05-04 12:21 | 53.35867 | -2.26984 | 255 ft | 1 kts | 320° |
| 2026-05-04 12:21 | 53.35878 | -2.26999 | 255 ft | 2 kts | 318° |
| 2026-05-04 12:22 | 53.35887 | -2.27014 | 255 ft | 2 kts | 315° |
| 2026-05-04 12:22 | 53.35893 | -2.27025 | 255 ft | 1 kts | 313° |
| 2026-05-04 12:22 | 53.35895 | -2.27029 | 255 ft | 0 kts | 313° |